Nearby METAR Reports

 

KFIN - Palm Coast, Florida, USA
Distance from station: ENE 9mi, 15km
Updated: Mon, 09-Dec-2019 5:15am EST
Clear
Clear
 Wind from calm
Wind: Calm
Temperature: 54°F , 12°C
Dew Point: 52°F , 11°C
Humidity: 94%
Barometer: 30.12 inHg , 1020 hPa
Clouds: Clear
Visibility: 10 miles , 16 km
2019/12/09 10:15 KFIN 091015Z AUTO 00000KT 10SM CLR 12/11 A3012 RMK AO2 T01170113
KOMN - Ormond Beach Vor, Florida, USA
Distance from station: ESE 17mi, 27km
Updated: Sun, 08-Dec-2019 6:50pm EST
NOT Current
Partly cloudy
Partly cloudy
 Wind from calm
Wind: Calm
Temperature: 68°F , 20°C
Dew Point: 68°F , 20°C
Humidity: 100%
Barometer: 30.17 inHg , 1021.7 hPa
Clouds: Partly cloudy
Visibility: 7 miles , 11 km
Cloud details: Partly cloudy 8500 ft
2019/12/08 23:50 KOMN 082350Z 00000KT 7SM SCT085 20/20 A3017 RMK LAST
 
KDAB - Daytona Beach, Florida, USA
Distance from station: SE 24mi, 39km
Updated: Mon, 09-Dec-2019 4:53am EST
Shallow fog, Clear
Shallow fog, Clear
 Wind from calm
Wind: Calm
Temperature: 57°F , 14°C
Dew Point: 57°F , 14°C
Humidity: 100%
Barometer: 30.12 inHg , 1020 hPa
Summary: Shallow Fog
Clouds: Clear
Visibility: 10 miles , 16 km
2019/12/09 09:53 KDAB 090953Z 00000KT 10SM MIFG CLR 14/14 A3012 RMK AO2 SLP198 T01390139
KDED - Deland, Florida, USA
Distance from station: S 26mi, 41km
Updated: Mon, 09-Dec-2019 5:15am EST
Clear
Clear
 Wind from calm
Wind: Calm
Temperature: 55°F , 13°C
Barometer: 30.12 inHg , 1020 hPa
Clouds: Clear
Visibility: 10 miles , 16 km
2019/12/09 10:15 KDED 091015Z AUTO 00000KT 10SM CLR 13/ A3012 RMK AO2
 
KEVB - New Smyrna Beach, Florida, USA
Distance from station: SE 36mi, 58km
Updated: Sun, 08-Dec-2019 9:50pm EST
NOT Current
Clear
Clear
 Wind from calm
Wind: Calm
Temperature: 61°F , 16°C
Dew Point: 59°F , 15°C
Humidity: 94%
Barometer: 30.18 inHg , 1022 hPa
Clouds: Clear
Visibility: 10 miles , 16 km
2019/12/09 02:50 KEVB 090250Z 00000KT 10SM CLR 16/15 A3018 RMK LAST
KSGJ - St Augustine, Florida, USA
Distance from station: N 37mi, 60km
Updated: Mon, 09-Dec-2019 4:56am EST
Clear
Clear
 Wind from calm
Wind: Calm
Temperature: 55°F , 13°C
Dew Point: 55°F , 13°C
Humidity: 100%
Barometer: 30.13 inHg , 1020.3 hPa
Clouds: Clear
Visibility: 10 miles , 16 km
2019/12/09 09:56 KSGJ 090956Z AUTO 00000KT 10SM CLR 13/13 A3013 RMK AO2 SLP201 T01330133 $
 
KSFB - Sanford/Orlando, Florida, USA
Distance from station: S 47mi, 75km
Updated: Mon, 09-Dec-2019 4:53am EST
Clear
Clear
 Wind from calm
Wind: Calm
Temperature: 57°F , 14°C
Dew Point: 55°F , 13°C
Humidity: 94%
Barometer: 30.11 inHg , 1019.6 hPa
Clouds: Clear
Visibility: 10 miles , 16 km
2019/12/09 09:53 KSFB 090953Z AUTO 00000KT 10SM CLR 14/13 A3011 RMK AO2 SLP196 T01440133
KVVG - The Villages, Florida, USA
Distance from station: SW 50mi, 80km
Updated: Wed, 14-Feb-2018 2:10pm EST
NOT Current

 Wind from calm
Wind: Calm
Temperature: 73°F , 23°C
Dew Point: 66°F , 19°C
Humidity: 78%
Barometer: 30.29 inHg , 1025.7 hPa
Visibility: 10 miles , 16 km
2018/02/14 19:10 KVVG 141910Z AUTO 00000KT 10SM 23/19 A3029 RMK A01